sensor_id;sensor_type;location;lat;lon;timestamp;P1;durP1;ratioP1;P2;durP2;ratioP2
10761;SDS011;5433;50.862;4.320;2023-07-13T00:01:54;6.30;;;2.08;;
10761;SDS011;5433;50.862;4.320;2023-07-13T00:04:21;5.57;;;2.00;;
10761;SDS011;5433;50.862;4.320;2023-07-13T00:06:48;8.70;;;2.15;;
10761;SDS011;5433;50.862;4.320;2023-07-13T00:09:16;7.00;;;2.17;;
10761;SDS011;5433;50.862;4.320;2023-07-13T00:11:43;4.38;;;1.90;;
10761;SDS011;5433;50.862;4.320;2023-07-13T00:14:10;7.90;;;2.33;;
10761;SDS011;5433;50.862;4.320;2023-07-13T00:16:36;4.53;;;2.15;;
10761;SDS011;5433;50.862;4.320;2023-07-13T00:19:03;7.53;;;2.08;;
10761;SDS011;5433;50.862;4.320;2023-07-13T00:21:29;9.80;;;2.22;;
10761;SDS011;5433;50.862;4.320;2023-07-13T00:23:55;6.40;;;2.30;;
10761;SDS011;5433;50.862;4.320;2023-07-13T00:26:22;6.47;;;2.40;;
10761;SDS011;5433;50.862;4.320;2023-07-13T00:28:48;6.97;;;2.38;;
10761;SDS011;5433;50.862;4.320;2023-07-13T00:31:14;5.95;;;2.05;;
10761;SDS011;5433;50.862;4.320;2023-07-13T00:33:40;6.95;;;2.58;;
10761;SDS011;5433;50.862;4.320;2023-07-13T00:36:07;6.85;;;1.90;;
10761;SDS011;5433;50.862;4.320;2023-07-13T00:38:33;8.80;;;2.40;;
10761;SDS011;5433;50.862;4.320;2023-07-13T00:40:59;7.00;;;2.10;;
10761;SDS011;5433;50.862;4.320;2023-07-13T00:43:27;5.22;;;1.95;;
10761;SDS011;5433;50.862;4.320;2023-07-13T00:46:15;8.70;;;2.22;;
10761;SDS011;5433;50.862;4.320;2023-07-13T00:48:41;6.43;;;2.00;;
10761;SDS011;5433;50.862;4.320;2023-07-13T00:51:07;6.63;;;2.30;;
10761;SDS011;5433;50.862;4.320;2023-07-13T00:53:34;7.78;;;2.35;;
10761;SDS011;5433;50.862;4.320;2023-07-13T00:56:00;6.20;;;2.20;;
10761;SDS011;5433;50.862;4.320;2023-07-13T00:58:26;6.47;;;2.10;;
10761;SDS011;5433;50.862;4.320;2023-07-13T01:00:52;8.13;;;2.50;;
10761;SDS011;5433;50.862;4.320;2023-07-13T01:03:19;8.68;;;2.40;;
10761;SDS011;5433;50.862;4.320;2023-07-13T01:05:47;6.15;;;2.15;;
10761;SDS011;5433;50.862;4.320;2023-07-13T01:08:13;9.40;;;2.30;;
10761;SDS011;5433;50.862;4.320;2023-07-13T01:10:40;7.63;;;2.28;;
10761;SDS011;5433;50.862;4.320;2023-07-13T01:13:07;6.82;;;2.40;;
10761;SDS011;5433;50.862;4.320;2023-07-13T01:15:34;5.22;;;2.40;;
10761;SDS011;5433;50.862;4.320;2023-07-13T01:18:01;9.40;;;2.72;;
10761;SDS011;5433;50.862;4.320;2023-07-13T01:20:27;5.93;;;2.30;;
10761;SDS011;5433;50.862;4.320;2023-07-13T01:22:53;7.90;;;2.30;;
10761;SDS011;5433;50.862;4.320;2023-07-13T01:25:19;9.57;;;2.50;;
10761;SDS011;5433;50.862;4.320;2023-07-13T01:27:46;8.00;;;2.38;;
10761;SDS011;5433;50.862;4.320;2023-07-13T01:30:12;7.40;;;2.20;;
10761;SDS011;5433;50.862;4.320;2023-07-13T01:32:38;6.43;;;2.08;;
10761;SDS011;5433;50.862;4.320;2023-07-13T01:35:06;6.22;;;2.50;;
10761;SDS011;5433;50.862;4.320;2023-07-13T01:37:32;6.72;;;2.25;;
10761;SDS011;5433;50.862;4.320;2023-07-13T01:40:01;7.93;;;2.30;;
10761;SDS011;5433;50.862;4.320;2023-07-13T01:42:27;7.25;;;2.50;;
10761;SDS011;5433;50.862;4.320;2023-07-13T01:44:53;4.82;;;2.10;;
10761;SDS011;5433;50.862;4.320;2023-07-13T01:47:19;6.82;;;2.30;;
10761;SDS011;5433;50.862;4.320;2023-07-13T01:49:45;8.93;;;2.55;;
10761;SDS011;5433;50.862;4.320;2023-07-13T01:52:12;7.13;;;2.10;;
10761;SDS011;5433;50.862;4.320;2023-07-13T01:54:38;7.20;;;2.35;;
10761;SDS011;5433;50.862;4.320;2023-07-13T01:57:04;7.72;;;2.60;;
10761;SDS011;5433;50.862;4.320;2023-07-13T01:59:30;7.35;;;2.17;;
10761;SDS011;5433;50.862;4.320;2023-07-13T02:01:58;10.00;;;2.60;;
10761;SDS011;5433;50.862;4.320;2023-07-13T02:04:24;9.57;;;2.58;;
10761;SDS011;5433;50.862;4.320;2023-07-13T02:06:50;6.82;;;2.55;;
10761;SDS011;5433;50.862;4.320;2023-07-13T02:09:16;8.23;;;2.45;;
10761;SDS011;5433;50.862;4.320;2023-07-13T02:11:42;10.63;;;2.63;;
10761;SDS011;5433;50.862;4.320;2023-07-13T02:14:08;7.03;;;2.25;;
10761;SDS011;5433;50.862;4.320;2023-07-13T02:16:34;5.60;;;2.60;;
10761;SDS011;5433;50.862;4.320;2023-07-13T02:19:00;7.68;;;2.50;;
10761;SDS011;5433;50.862;4.320;2023-07-13T02:21:27;6.68;;;2.50;;
10761;SDS011;5433;50.862;4.320;2023-07-13T02:23:53;6.57;;;2.75;;
10761;SDS011;5433;50.862;4.320;2023-07-13T02:26:20;6.93;;;2.40;;
10761;SDS011;5433;50.862;4.320;2023-07-13T02:28:46;6.63;;;2.55;;
10761;SDS011;5433;50.862;4.320;2023-07-13T02:31:13;7.68;;;2.67;;
10761;SDS011;5433;50.862;4.320;2023-07-13T02:33:39;8.90;;;2.95;;
10761;SDS011;5433;50.862;4.320;2023-07-13T02:36:05;11.20;;;3.10;;
10761;SDS011;5433;50.862;4.320;2023-07-13T02:38:35;6.40;;;2.53;;
10761;SDS011;5433;50.862;4.320;2023-07-13T02:41:02;6.88;;;2.58;;
10761;SDS011;5433;50.862;4.320;2023-07-13T02:43:28;5.95;;;2.47;;
10761;SDS011;5433;50.862;4.320;2023-07-13T02:45:58;8.25;;;2.50;;
10761;SDS011;5433;50.862;4.320;2023-07-13T02:48:29;8.52;;;3.13;;
10761;SDS011;5433;50.862;4.320;2023-07-13T02:50:55;6.18;;;2.58;;
10761;SDS011;5433;50.862;4.320;2023-07-13T02:53:21;8.70;;;2.92;;
10761;SDS011;5433;50.862;4.320;2023-07-13T02:55:47;7.10;;;2.60;;
10761;SDS011;5433;50.862;4.320;2023-07-13T02:58:13;7.45;;;2.70;;
10761;SDS011;5433;50.862;4.320;2023-07-13T03:00:45;7.82;;;2.78;;
10761;SDS011;5433;50.862;4.320;2023-07-13T03:03:12;8.07;;;2.72;;
10761;SDS011;5433;50.862;4.320;2023-07-13T03:05:40;7.55;;;3.00;;
10761;SDS011;5433;50.862;4.320;2023-07-13T03:08:10;8.63;;;2.80;;
10761;SDS011;5433;50.862;4.320;2023-07-13T03:10:36;9.30;;;2.80;;
10761;SDS011;5433;50.862;4.320;2023-07-13T03:13:04;7.72;;;2.78;;
10761;SDS011;5433;50.862;4.320;2023-07-13T03:15:30;10.52;;;2.70;;
10761;SDS011;5433;50.862;4.320;2023-07-13T03:17:57;11.15;;;3.10;;
10761;SDS011;5433;50.862;4.320;2023-07-13T03:20:23;8.32;;;2.92;;
10761;SDS011;5433;50.862;4.320;2023-07-13T03:22:49;7.22;;;2.90;;
10761;SDS011;5433;50.862;4.320;2023-07-13T03:25:15;7.95;;;3.00;;
10761;SDS011;5433;50.862;4.320;2023-07-13T03:27:41;9.60;;;2.85;;
10761;SDS011;5433;50.862;4.320;2023-07-13T03:30:07;5.75;;;2.58;;
10761;SDS011;5433;50.862;4.320;2023-07-13T03:32:33;7.20;;;3.00;;
10761;SDS011;5433;50.862;4.320;2023-07-13T03:34:59;7.40;;;3.15;;
10761;SDS011;5433;50.862;4.320;2023-07-13T03:37:26;11.23;;;3.17;;
10761;SDS011;5433;50.862;4.320;2023-07-13T03:39:53;6.60;;;2.90;;
10761;SDS011;5433;50.862;4.320;2023-07-13T03:42:19;9.32;;;3.03;;
10761;SDS011;5433;50.862;4.320;2023-07-13T03:44:45;12.55;;;3.45;;
10761;SDS011;5433;50.862;4.320;2023-07-13T03:47:17;8.15;;;3.47;;
10761;SDS011;5433;50.862;4.320;2023-07-13T03:49:43;6.60;;;2.92;;
10761;SDS011;5433;50.862;4.320;2023-07-13T03:52:10;7.13;;;3.40;;
10761;SDS011;5433;50.862;4.320;2023-07-13T03:54:36;10.27;;;3.40;;
10761;SDS011;5433;50.862;4.320;2023-07-13T03:57:02;10.55;;;3.30;;
10761;SDS011;5433;50.862;4.320;2023-07-13T03:59:28;11.00;;;3.33;;
10761;SDS011;5433;50.862;4.320;2023-07-13T04:01:54;12.88;;;3.30;;
10761;SDS011;5433;50.862;4.320;2023-07-13T04:04:20;10.20;;;3.42;;
10761;SDS011;5433;50.862;4.320;2023-07-13T04:06:46;11.98;;;3.35;;
10761;SDS011;5433;50.862;4.320;2023-07-13T04:09:13;8.90;;;2.95;;
10761;SDS011;5433;50.862;4.320;2023-07-13T04:11:39;9.23;;;3.13;;
10761;SDS011;5433;50.862;4.320;2023-07-13T04:14:05;9.05;;;3.22;;
10761;SDS011;5433;50.862;4.320;2023-07-13T04:16:31;9.95;;;3.35;;
10761;SDS011;5433;50.862;4.320;2023-07-13T04:18:57;9.43;;;3.10;;
10761;SDS011;5433;50.862;4.320;2023-07-13T04:21:25;11.10;;;3.50;;
10761;SDS011;5433;50.862;4.320;2023-07-13T04:23:52;7.45;;;3.33;;
10761;SDS011;5433;50.862;4.320;2023-07-13T04:26:20;9.48;;;3.20;;
10761;SDS011;5433;50.862;4.320;2023-07-13T04:28:48;13.20;;;3.42;;
10761;SDS011;5433;50.862;4.320;2023-07-13T04:31:14;9.00;;;2.88;;
10761;SDS011;5433;50.862;4.320;2023-07-13T04:33:40;9.77;;;3.00;;
10761;SDS011;5433;50.862;4.320;2023-07-13T04:36:08;8.57;;;3.08;;
10761;SDS011;5433;50.862;4.320;2023-07-13T04:38:34;10.77;;;3.67;;
10761;SDS011;5433;50.862;4.320;2023-07-13T04:41:02;8.32;;;3.00;;
10761;SDS011;5433;50.862;4.320;2023-07-13T04:43:28;9.55;;;2.90;;
10761;SDS011;5433;50.862;4.320;2023-07-13T04:45:55;8.98;;;2.88;;
10761;SDS011;5433;50.862;4.320;2023-07-13T04:48:24;6.53;;;2.88;;
10761;SDS011;5433;50.862;4.320;2023-07-13T04:50:54;11.60;;;3.33;;
10761;SDS011;5433;50.862;4.320;2023-07-13T04:53:20;12.50;;;3.38;;
10761;SDS011;5433;50.862;4.320;2023-07-13T04:55:46;11.48;;;3.97;;
10761;SDS011;5433;50.862;4.320;2023-07-13T04:58:12;12.27;;;3.35;;
10761;SDS011;5433;50.862;4.320;2023-07-13T05:00:39;11.75;;;3.30;;
10761;SDS011;5433;50.862;4.320;2023-07-13T05:03:05;11.25;;;3.13;;
10761;SDS011;5433;50.862;4.320;2023-07-13T05:05:31;9.27;;;3.33;;
10761;SDS011;5433;50.862;4.320;2023-07-13T05:07:58;9.10;;;3.40;;
10761;SDS011;5433;50.862;4.320;2023-07-13T05:10:25;9.43;;;3.50;;
10761;SDS011;5433;50.862;4.320;2023-07-13T05:12:51;10.27;;;3.20;;
10761;SDS011;5433;50.862;4.320;2023-07-13T05:15:17;7.78;;;3.00;;
10761;SDS011;5433;50.862;4.320;2023-07-13T05:17:49;11.50;;;3.60;;
10761;SDS011;5433;50.862;4.320;2023-07-13T05:20:15;11.13;;;3.42;;
10761;SDS011;5433;50.862;4.320;2023-07-13T05:22:42;14.13;;;3.38;;
10761;SDS011;5433;50.862;4.320;2023-07-13T05:25:08;11.95;;;3.55;;
10761;SDS011;5433;50.862;4.320;2023-07-13T05:27:37;9.60;;;3.38;;
10761;SDS011;5433;50.862;4.320;2023-07-13T05:30:06;10.80;;;3.40;;
10761;SDS011;5433;50.862;4.320;2023-07-13T05:32:35;8.82;;;2.97;;
10761;SDS011;5433;50.862;4.320;2023-07-13T05:35:01;14.25;;;3.75;;
10761;SDS011;5433;50.862;4.320;2023-07-13T05:37:27;8.98;;;3.28;;
10761;SDS011;5433;50.862;4.320;2023-07-13T05:39:53;7.47;;;3.38;;
10761;SDS011;5433;50.862;4.320;2023-07-13T05:42:19;11.93;;;3.20;;
10761;SDS011;5433;50.862;4.320;2023-07-13T05:44:45;10.85;;;3.67;;
10761;SDS011;5433;50.862;4.320;2023-07-13T05:47:11;10.63;;;3.30;;
10761;SDS011;5433;50.862;4.320;2023-07-13T05:49:39;12.77;;;3.85;;
10761;SDS011;5433;50.862;4.320;2023-07-13T05:52:05;12.75;;;3.78;;
10761;SDS011;5433;50.862;4.320;2023-07-13T05:54:31;9.68;;;3.20;;
10761;SDS011;5433;50.862;4.320;2023-07-13T05:56:58;8.07;;;3.10;;
10761;SDS011;5433;50.862;4.320;2023-07-13T05:59:23;11.70;;;3.63;;
10761;SDS011;5433;50.862;4.320;2023-07-13T06:01:50;10.25;;;3.35;;
10761;SDS011;5433;50.862;4.320;2023-07-13T06:04:17;13.57;;;3.15;;
10761;SDS011;5433;50.862;4.320;2023-07-13T06:06:44;11.60;;;3.22;;
10761;SDS011;5433;50.862;4.320;2023-07-13T06:09:10;13.02;;;3.50;;
10761;SDS011;5433;50.862;4.320;2023-07-13T06:11:36;10.00;;;3.40;;
10761;SDS011;5433;50.862;4.320;2023-07-13T06:14:02;10.50;;;3.45;;
10761;SDS011;5433;50.862;4.320;2023-07-13T06:16:28;13.43;;;3.75;;
10761;SDS011;5433;50.862;4.320;2023-07-13T06:18:54;12.30;;;3.55;;
10761;SDS011;5433;50.862;4.320;2023-07-13T06:21:21;11.52;;;3.60;;
10761;SDS011;5433;50.862;4.320;2023-07-13T06:23:48;10.20;;;3.42;;
10761;SDS011;5433;50.862;4.320;2023-07-13T06:26:14;11.88;;;3.75;;
10761;SDS011;5433;50.862;4.320;2023-07-13T06:28:40;11.57;;;3.67;;
10761;SDS011;5433;50.862;4.320;2023-07-13T06:31:07;11.18;;;3.70;;
10761;SDS011;5433;50.862;4.320;2023-07-13T06:33:33;11.20;;;3.15;;
10761;SDS011;5433;50.862;4.320;2023-07-13T06:36:00;11.60;;;3.92;;
10761;SDS011;5433;50.862;4.320;2023-07-13T06:38:26;12.95;;;3.45;;
10761;SDS011;5433;50.862;4.320;2023-07-13T06:40:53;12.40;;;3.58;;
10761;SDS011;5433;50.862;4.320;2023-07-13T06:43:19;8.77;;;3.95;;
10761;SDS011;5433;50.862;4.320;2023-07-13T06:45:46;9.55;;;3.50;;
10761;SDS011;5433;50.862;4.320;2023-07-13T06:48:14;8.93;;;3.25;;
10761;SDS011;5433;50.862;4.320;2023-07-13T06:50:41;10.30;;;3.45;;
10761;SDS011;5433;50.862;4.320;2023-07-13T06:53:08;7.95;;;3.75;;
10761;SDS011;5433;50.862;4.320;2023-07-13T06:56:02;11.40;;;3.40;;
10761;SDS011;5433;50.862;4.320;2023-07-13T06:58:49;9.13;;;3.10;;
10761;SDS011;5433;50.862;4.320;2023-07-13T07:01:14;9.18;;;3.78;;
10761;SDS011;5433;50.862;4.320;2023-07-13T07:03:40;11.30;;;3.80;;
10761;SDS011;5433;50.862;4.320;2023-07-13T07:08:39;10.95;;;3.75;;
10761;SDS011;5433;50.862;4.320;2023-07-13T07:11:08;9.55;;;3.55;;
10761;SDS011;5433;50.862;4.320;2023-07-13T07:13:34;9.82;;;3.60;;
10761;SDS011;5433;50.862;4.320;2023-07-13T07:16:00;9.25;;;3.55;;
10761;SDS011;5433;50.862;4.320;2023-07-13T07:18:26;12.93;;;3.70;;
10761;SDS011;5433;50.862;4.320;2023-07-13T07:20:52;10.32;;;3.72;;
10761;SDS011;5433;50.862;4.320;2023-07-13T07:23:18;9.85;;;3.22;;
10761;SDS011;5433;50.862;4.320;2023-07-13T07:25:44;9.35;;;3.58;;
10761;SDS011;5433;50.862;4.320;2023-07-13T07:28:11;10.98;;;3.53;;
10761;SDS011;5433;50.862;4.320;2023-07-13T07:30:52;10.73;;;3.40;;
10761;SDS011;5433;50.862;4.320;2023-07-13T07:33:18;10.85;;;3.30;;
10761;SDS011;5433;50.862;4.320;2023-07-13T07:35:44;9.82;;;3.45;;
10761;SDS011;5433;50.862;4.320;2023-07-13T07:38:10;9.95;;;3.30;;
10761;SDS011;5433;50.862;4.320;2023-07-13T07:40:37;8.80;;;3.15;;
10761;SDS011;5433;50.862;4.320;2023-07-13T07:43:03;9.20;;;2.92;;
10761;SDS011;5433;50.862;4.320;2023-07-13T07:45:29;11.55;;;3.25;;
10761;SDS011;5433;50.862;4.320;2023-07-13T07:47:55;11.10;;;3.53;;
10761;SDS011;5433;50.862;4.320;2023-07-13T07:50:24;9.13;;;3.17;;
10761;SDS011;5433;50.862;4.320;2023-07-13T07:52:50;11.65;;;3.50;;
10761;SDS011;5433;50.862;4.320;2023-07-13T07:55:16;8.75;;;3.50;;
10761;SDS011;5433;50.862;4.320;2023-07-13T07:57:42;9.63;;;3.53;;
10761;SDS011;5433;50.862;4.320;2023-07-13T08:00:10;11.77;;;3.55;;
10761;SDS011;5433;50.862;4.320;2023-07-13T08:02:55;8.15;;;3.40;;
10761;SDS011;5433;50.862;4.320;2023-07-13T08:46:52;7.40;;;3.05;;
10761;SDS011;5433;50.862;4.320;2023-07-13T08:49:44;7.95;;;2.92;;
10761;SDS011;5433;50.862;4.320;2023-07-13T08:52:13;7.43;;;2.72;;
10761;SDS011;5433;50.862;4.320;2023-07-13T08:54:44;6.53;;;2.88;;
10761;SDS011;5433;50.862;4.320;2023-07-13T08:57:17;8.05;;;3.05;;
10761;SDS011;5433;50.862;4.320;2023-07-13T08:59:44;6.60;;;3.00;;
10761;SDS011;5433;50.862;4.320;2023-07-13T09:02:16;8.40;;;3.13;;
10761;SDS011;5433;50.862;4.320;2023-07-13T09:04:47;6.70;;;2.97;;
10761;SDS011;5433;50.862;4.320;2023-07-13T09:07:17;8.23;;;2.97;;
10761;SDS011;5433;50.862;4.320;2023-07-13T09:10:35;6.53;;;2.90;;
10761;SDS011;5433;50.862;4.320;2023-07-13T09:12:46;6.28;;;2.70;;
10761;SDS011;5433;50.862;4.320;2023-07-13T09:15:17;11.07;;;3.22;;
10761;SDS011;5433;50.862;4.320;2023-07-13T09:17:48;7.85;;;3.08;;
10761;SDS011;5433;50.862;4.320;2023-07-13T09:22:51;8.88;;;2.88;;
10761;SDS011;5433;50.862;4.320;2023-07-13T09:25:21;7.70;;;2.70;;
10761;SDS011;5433;50.862;4.320;2023-07-13T09:27:49;7.85;;;2.55;;
10761;SDS011;5433;50.862;4.320;2023-07-13T09:31:03;6.85;;;2.83;;
10761;SDS011;5433;50.862;4.320;2023-07-13T09:33:09;6.75;;;3.00;;
10761;SDS011;5433;50.862;4.320;2023-07-13T09:35:35;6.05;;;2.60;;
10761;SDS011;5433;50.862;4.320;2023-07-13T09:38:10;8.73;;;3.10;;
10761;SDS011;5433;50.862;4.320;2023-07-13T09:43:06;7.85;;;2.85;;
10761;SDS011;5433;50.862;4.320;2023-07-13T09:45:35;5.72;;;2.50;;
10761;SDS011;5433;50.862;4.320;2023-07-13T09:48:06;8.07;;;2.75;;
10761;SDS011;5433;50.862;4.320;2023-07-13T09:50:33;5.72;;;2.20;;
10761;SDS011;5433;50.862;4.320;2023-07-13T09:53:01;5.13;;;2.50;;
10761;SDS011;5433;50.862;4.320;2023-07-13T09:57:56;7.75;;;2.40;;
10761;SDS011;5433;50.862;4.320;2023-07-13T10:00:25;5.93;;;2.30;;
10761;SDS011;5433;50.862;4.320;2023-07-13T10:03:02;8.75;;;2.65;;
10761;SDS011;5433;50.862;4.320;2023-07-13T10:05:41;8.27;;;2.70;;
10761;SDS011;5433;50.862;4.320;2023-07-13T10:11:10;5.30;;;2.30;;
10761;SDS011;5433;50.862;4.320;2023-07-13T10:13:36;5.45;;;2.15;;
10761;SDS011;5433;50.862;4.320;2023-07-13T10:16:18;4.70;;;2.22;;
10761;SDS011;5433;50.862;4.320;2023-07-13T10:18:46;5.05;;;2.10;;
10761;SDS011;5433;50.862;4.320;2023-07-13T10:21:14;5.20;;;2.25;;
10761;SDS011;5433;50.862;4.320;2023-07-13T10:23:40;7.20;;;2.40;;
10761;SDS011;5433;50.862;4.320;2023-07-13T10:26:09;7.53;;;2.30;;
10761;SDS011;5433;50.862;4.320;2023-07-13T10:28:38;4.32;;;2.42;;
10761;SDS011;5433;50.862;4.320;2023-07-13T10:31:06;3.60;;;2.20;;
10761;SDS011;5433;50.862;4.320;2023-07-13T10:33:39;5.13;;;2.30;;
10761;SDS011;5433;50.862;4.320;2023-07-13T10:38:43;5.57;;;2.20;;
10761;SDS011;5433;50.862;4.320;2023-07-13T10:41:12;5.50;;;2.45;;
10761;SDS011;5433;50.862;4.320;2023-07-13T10:43:53;5.75;;;2.63;;
10761;SDS011;5433;50.862;4.320;2023-07-13T10:46:21;5.20;;;2.50;;
10761;SDS011;5433;50.862;4.320;2023-07-13T10:48:49;5.75;;;2.90;;
10761;SDS011;5433;50.862;4.320;2023-07-13T10:51:17;10.50;;;3.00;;
10761;SDS011;5433;50.862;4.320;2023-07-13T10:53:46;10.63;;;3.05;;
10761;SDS011;5433;50.862;4.320;2023-07-13T10:56:28;5.63;;;2.80;;
10761;SDS011;5433;50.862;4.320;2023-07-13T10:59:02;4.57;;;2.35;;
10761;SDS011;5433;50.862;4.320;2023-07-13T11:01:38;5.15;;;2.53;;
10761;SDS011;5433;50.862;4.320;2023-07-13T11:04:05;6.15;;;2.40;;
10761;SDS011;5433;50.862;4.320;2023-07-13T11:06:37;5.25;;;2.30;;
10761;SDS011;5433;50.862;4.320;2023-07-13T11:11:49;3.92;;;2.28;;
10761;SDS011;5433;50.862;4.320;2023-07-13T11:16:53;5.63;;;2.30;;
10761;SDS011;5433;50.862;4.320;2023-07-13T11:22:02;5.38;;;2.03;;
10761;SDS011;5433;50.862;4.320;2023-07-13T11:24:29;5.38;;;2.08;;
10761;SDS011;5433;50.862;4.320;2023-07-13T11:27:27;5.43;;;1.90;;
10761;SDS011;5433;50.862;4.320;2023-07-13T11:30:07;5.60;;;2.20;;
10761;SDS011;5433;50.862;4.320;2023-07-13T11:32:34;5.90;;;2.40;;
10761;SDS011;5433;50.862;4.320;2023-07-13T11:35:00;6.53;;;2.20;;
10761;SDS011;5433;50.862;4.320;2023-07-13T11:37:26;5.85;;;2.22;;
10761;SDS011;5433;50.862;4.320;2023-07-13T11:39:54;7.60;;;2.10;;
10761;SDS011;5433;50.862;4.320;2023-07-13T11:42:20;6.10;;;2.00;;
10761;SDS011;5433;50.862;4.320;2023-07-13T11:44:48;4.57;;;2.10;;
10761;SDS011;5433;50.862;4.320;2023-07-13T11:47:17;4.32;;;2.10;;
10761;SDS011;5433;50.862;4.320;2023-07-13T11:49:45;4.30;;;2.15;;
10761;SDS011;5433;50.862;4.320;2023-07-13T11:52:14;5.90;;;2.15;;
10761;SDS011;5433;50.862;4.320;2023-07-13T11:54:49;5.18;;;2.33;;
10761;SDS011;5433;50.862;4.320;2023-07-13T11:57:36;5.70;;;2.60;;
10761;SDS011;5433;50.862;4.320;2023-07-13T12:00:09;4.57;;;2.20;;
10761;SDS011;5433;50.862;4.320;2023-07-13T12:02:37;4.65;;;2.20;;
10761;SDS011;5433;50.862;4.320;2023-07-13T12:05:04;4.57;;;2.20;;
10761;SDS011;5433;50.862;4.320;2023-07-13T12:07:32;6.53;;;2.20;;
10761;SDS011;5433;50.862;4.320;2023-07-13T12:10:02;4.30;;;1.95;;
10761;SDS011;5433;50.862;4.320;2023-07-13T12:12:29;4.82;;;1.85;;
10761;SDS011;5433;50.862;4.320;2023-07-13T12:14:55;5.70;;;2.40;;
10761;SDS011;5433;50.862;4.320;2023-07-13T12:17:22;5.13;;;2.10;;
10761;SDS011;5433;50.862;4.320;2023-07-13T12:19:49;5.78;;;2.00;;
10761;SDS011;5433;50.862;4.320;2023-07-13T12:22:16;3.03;;;1.70;;
10761;SDS011;5433;50.862;4.320;2023-07-13T12:24:43;2.63;;;1.48;;
10761;SDS011;5433;50.862;4.320;2023-07-13T12:27:14;7.57;;;2.30;;
10761;SDS011;5433;50.862;4.320;2023-07-13T12:29:48;2.95;;;1.95;;
10761;SDS011;5433;50.862;4.320;2023-07-13T12:32:17;5.50;;;2.03;;
10761;SDS011;5433;50.862;4.320;2023-07-13T12:34:51;3.25;;;2.08;;
10761;SDS011;5433;50.862;4.320;2023-07-13T12:37:17;3.42;;;2.38;;
10761;SDS011;5433;50.862;4.320;2023-07-13T12:39:45;6.97;;;2.78;;
10761;SDS011;5433;50.862;4.320;2023-07-13T12:42:21;6.15;;;2.70;;
10761;SDS011;5433;50.862;4.320;2023-07-13T12:44:52;6.70;;;2.95;;
10761;SDS011;5433;50.862;4.320;2023-07-13T12:47:19;4.25;;;2.97;;
10761;SDS011;5433;50.862;4.320;2023-07-13T12:49:50;3.50;;;3.00;;
10761;SDS011;5433;50.862;4.320;2023-07-13T12:52:22;6.13;;;3.50;;
10761;SDS011;5433;50.862;4.320;2023-07-13T12:54:56;4.30;;;3.80;;
10761;SDS011;5433;50.862;4.320;2023-07-13T12:57:23;4.85;;;3.80;;
10761;SDS011;5433;50.862;4.320;2023-07-13T12:59:51;6.95;;;3.95;;
10761;SDS011;5433;50.862;4.320;2023-07-13T13:02:21;5.80;;;3.67;;
10761;SDS011;5433;50.862;4.320;2023-07-13T13:04:48;7.03;;;3.33;;
10761;SDS011;5433;50.862;4.320;2023-07-13T13:07:14;3.95;;;3.13;;
10761;SDS011;5433;50.862;4.320;2023-07-13T13:09:40;4.15;;;2.53;;
10761;SDS011;5433;50.862;4.320;2023-07-13T13:12:07;3.35;;;2.53;;
10761;SDS011;5433;50.862;4.320;2023-07-13T13:14:33;3.35;;;2.47;;
10761;SDS011;5433;50.862;4.320;2023-07-13T13:16:59;3.92;;;2.50;;
10761;SDS011;5433;50.862;4.320;2023-07-13T13:19:27;3.78;;;2.53;;
10761;SDS011;5433;50.862;4.320;2023-07-13T13:21:54;3.67;;;2.70;;
10761;SDS011;5433;50.862;4.320;2023-07-13T13:24:22;4.40;;;2.40;;
10761;SDS011;5433;50.862;4.320;2023-07-13T13:26:48;5.00;;;2.60;;
10761;SDS011;5433;50.862;4.320;2023-07-13T13:29:21;3.85;;;2.72;;
10761;SDS011;5433;50.862;4.320;2023-07-13T13:31:51;3.03;;;2.53;;
10761;SDS011;5433;50.862;4.320;2023-07-13T13:34:18;4.00;;;2.40;;
10761;SDS011;5433;50.862;4.320;2023-07-13T13:36:44;3.15;;;2.10;;
10761;SDS011;5433;50.862;4.320;2023-07-13T13:39:34;3.42;;;2.00;;
10761;SDS011;5433;50.862;4.320;2023-07-13T13:42:01;3.65;;;1.92;;
10761;SDS011;5433;50.862;4.320;2023-07-13T13:44:27;3.72;;;1.90;;
10761;SDS011;5433;50.862;4.320;2023-07-13T13:46:56;3.38;;;2.30;;
10761;SDS011;5433;50.862;4.320;2023-07-13T13:49:23;3.70;;;1.90;;
10761;SDS011;5433;50.862;4.320;2023-07-13T13:51:50;4.75;;;2.00;;
10761;SDS011;5433;50.862;4.320;2023-07-13T13:54:17;4.57;;;1.80;;
10761;SDS011;5433;50.862;4.320;2023-07-13T13:57:08;3.45;;;1.98;;
10761;SDS011;5433;50.862;4.320;2023-07-13T13:59:59;3.53;;;1.70;;
10761;SDS011;5433;50.862;4.320;2023-07-13T14:02:43;3.22;;;2.00;;
10761;SDS011;5433;50.862;4.320;2023-07-13T14:05:14;3.08;;;1.98;;
10761;SDS011;5433;50.862;4.320;2023-07-13T14:08:01;3.13;;;1.80;;
10761;SDS011;5433;50.862;4.320;2023-07-13T14:10:29;4.85;;;1.83;;
10761;SDS011;5433;50.862;4.320;2023-07-13T14:12:56;4.13;;;1.98;;
10761;SDS011;5433;50.862;4.320;2023-07-13T14:15:23;3.83;;;1.77;;
10761;SDS011;5433;50.862;4.320;2023-07-13T14:17:56;3.67;;;1.88;;
10761;SDS011;5433;50.862;4.320;2023-07-13T14:23:35;2.33;;;1.80;;
10761;SDS011;5433;50.862;4.320;2023-07-13T14:26:13;3.55;;;1.77;;
10761;SDS011;5433;50.862;4.320;2023-07-13T14:28:42;4.55;;;2.10;;
10761;SDS011;5433;50.862;4.320;2023-07-13T14:31:18;4.60;;;2.20;;
10761;SDS011;5433;50.862;4.320;2023-07-13T14:34:01;3.35;;;1.75;;
10761;SDS011;5433;50.862;4.320;2023-07-13T14:36:42;5.45;;;2.20;;
10761;SDS011;5433;50.862;4.320;2023-07-13T14:39:19;3.83;;;1.83;;
10761;SDS011;5433;50.862;4.320;2023-07-13T14:41:59;2.88;;;1.70;;
10761;SDS011;5433;50.862;4.320;2023-07-13T14:44:29;2.65;;;1.70;;
10761;SDS011;5433;50.862;4.320;2023-07-13T14:47:13;2.45;;;1.70;;
10761;SDS011;5433;50.862;4.320;2023-07-13T14:49:42;4.65;;;1.70;;
10761;SDS011;5433;50.862;4.320;2023-07-13T14:52:20;1.60;;;1.50;;
10761;SDS011;5433;50.862;4.320;2023-07-13T14:54:54;2.97;;;1.60;;
10761;SDS011;5433;50.862;4.320;2023-07-13T14:57:40;3.35;;;1.83;;
10761;SDS011;5433;50.862;4.320;2023-07-13T15:05:59;3.38;;;1.50;;
10761;SDS011;5433;50.862;4.320;2023-07-13T15:12:05;3.72;;;1.65;;
10761;SDS011;5433;50.862;4.320;2023-07-13T15:14:31;3.80;;;1.67;;
10761;SDS011;5433;50.862;4.320;2023-07-13T15:17:02;4.20;;;1.70;;
10761;SDS011;5433;50.862;4.320;2023-07-13T15:19:28;2.42;;;1.80;;
10761;SDS011;5433;50.862;4.320;2023-07-13T15:22:03;3.28;;;1.77;;
10761;SDS011;5433;50.862;4.320;2023-07-13T15:24:37;4.32;;;1.70;;
10761;SDS011;5433;50.862;4.320;2023-07-13T15:27:08;3.00;;;1.80;;
10761;SDS011;5433;50.862;4.320;2023-07-13T15:29:35;3.60;;;1.75;;
10761;SDS011;5433;50.862;4.320;2023-07-13T15:32:02;3.03;;;1.92;;
10761;SDS011;5433;50.862;4.320;2023-07-13T15:34:28;3.22;;;1.92;;
10761;SDS011;5433;50.862;4.320;2023-07-13T15:36:55;2.72;;;1.88;;
10761;SDS011;5433;50.862;4.320;2023-07-13T15:39:21;2.30;;;1.63;;
10761;SDS011;5433;50.862;4.320;2023-07-13T15:41:50;4.50;;;1.73;;
10761;SDS011;5433;50.862;4.320;2023-07-13T15:44:23;2.13;;;1.60;;
10761;SDS011;5433;50.862;4.320;2023-07-13T15:46:52;4.28;;;1.77;;
10761;SDS011;5433;50.862;4.320;2023-07-13T15:49:18;2.05;;;1.48;;
10761;SDS011;5433;50.862;4.320;2023-07-13T15:51:44;3.00;;;1.90;;
10761;SDS011;5433;50.862;4.320;2023-07-13T15:54:12;2.25;;;1.70;;
10761;SDS011;5433;50.862;4.320;2023-07-13T15:56:39;3.03;;;1.75;;
10761;SDS011;5433;50.862;4.320;2023-07-13T15:59:07;3.58;;;1.98;;
10761;SDS011;5433;50.862;4.320;2023-07-13T16:01:37;4.13;;;1.88;;
10761;SDS011;5433;50.862;4.320;2023-07-13T16:04:06;4.28;;;1.90;;
10761;SDS011;5433;50.862;4.320;2023-07-13T16:06:33;2.30;;;1.88;;
10761;SDS011;5433;50.862;4.320;2023-07-13T16:09:01;3.30;;;2.00;;
10761;SDS011;5433;50.862;4.320;2023-07-13T16:11:28;2.72;;;1.92;;
10761;SDS011;5433;50.862;4.320;2023-07-13T16:13:57;2.45;;;1.70;;
10761;SDS011;5433;50.862;4.320;2023-07-13T16:16:27;2.30;;;1.92;;
10761;SDS011;5433;50.862;4.320;2023-07-13T16:18:54;2.97;;;1.98;;
10761;SDS011;5433;50.862;4.320;2023-07-13T16:42:43;3.35;;;1.80;;
10761;SDS011;5433;50.862;4.320;2023-07-13T16:45:23;3.00;;;1.70;;
10761;SDS011;5433;50.862;4.320;2023-07-13T16:47:53;2.80;;;1.73;;